<?xml version="1.0" encoding="UTF-8" standalone="no" ?>
<gpx xmlns="http://www.topografix.com/GPX/1/1" xmlns:xsi="http://www.w3.org/2001/XMLSchema-instance" xsi:schemaLocation="http://www.topografix.com/GPX/1/1 http://www.topografix.com/GPX/1/1/gpx.xsd" version="1.1" creator="VisuGPX - https://www.visugpx.com">
  <metadata>
    <name>j6, Aubrac, Recoules d'Aubrac =&gt; La Chaldette</name>
    <desc><![CDATA[j6, Aubrac, Recoules d'Aubrac => La Chaldette.]]></desc>
  </metadata>
  <trk>
    <name><![CDATA[j6, Aubrac, Recoules d'Aubrac => La Chaldette_1]]></name>
    <trkseg>
      <trkpt lat="44.69437" lon="3.03531">
        <ele>1017</ele>
        <time>2021-06-03T08:20:00Z</time>
      </trkpt>
      <trkpt lat="44.69456" lon="3.03539">
        <ele>1019.5</ele>
        <time>2021-06-03T08:20:30Z</time>
      </trkpt>
      <trkpt lat="44.69457" lon="3.03555">
        <ele>1024</ele>
        <time>2021-06-03T08:21:01Z</time>
      </trkpt>
      <trkpt lat="44.69434" lon="3.03587">
        <ele>1027</ele>
        <time>2021-06-03T08:21:31Z</time>
      </trkpt>
      <trkpt lat="44.69421" lon="3.03618">
        <ele>1029</ele>
        <time>2021-06-03T08:22:02Z</time>
      </trkpt>
      <trkpt lat="44.69411" lon="3.03641">
        <ele>1027.9</ele>
        <time>2021-06-03T08:22:34Z</time>
      </trkpt>
      <trkpt lat="44.6939" lon="3.03689">
        <ele>1032.7</ele>
        <time>2021-06-03T08:23:04Z</time>
      </trkpt>
      <trkpt lat="44.69362" lon="3.03729">
        <ele>1030.7</ele>
        <time>2021-06-03T08:23:35Z</time>
      </trkpt>
      <trkpt lat="44.69334" lon="3.03763">
        <ele>1032.9</ele>
        <time>2021-06-03T08:24:05Z</time>
      </trkpt>
      <trkpt lat="44.69305" lon="3.03798">
        <ele>1036.3</ele>
        <time>2021-06-03T08:24:35Z</time>
      </trkpt>
      <trkpt lat="44.69273" lon="3.03829">
        <ele>1041.6</ele>
        <time>2021-06-03T08:25:06Z</time>
      </trkpt>
      <trkpt lat="44.69266" lon="3.03838">
        <ele>1042.1</ele>
        <time>2021-06-03T08:26:35Z</time>
      </trkpt>
      <trkpt lat="44.69262" lon="3.03851">
        <ele>1038.4</ele>
        <time>2021-06-03T08:27:05Z</time>
      </trkpt>
      <trkpt lat="44.69245" lon="3.039">
        <ele>1036.6</ele>
        <time>2021-06-03T08:27:36Z</time>
      </trkpt>
      <trkpt lat="44.6925" lon="3.03951">
        <ele>1040.8</ele>
        <time>2021-06-03T08:28:07Z</time>
      </trkpt>
      <trkpt lat="44.69281" lon="3.0398">
        <ele>1038.4</ele>
        <time>2021-06-03T08:28:37Z</time>
      </trkpt>
      <trkpt lat="44.69298" lon="3.04026">
        <ele>1040.6</ele>
        <time>2021-06-03T08:29:08Z</time>
      </trkpt>
      <trkpt lat="44.69305" lon="3.04079">
        <ele>1044.4</ele>
        <time>2021-06-03T08:29:40Z</time>
      </trkpt>
      <trkpt lat="44.69302" lon="3.04134">
        <ele>1044.9</ele>
        <time>2021-06-03T08:30:10Z</time>
      </trkpt>
      <trkpt lat="44.69289" lon="3.0419">
        <ele>1050.5</ele>
        <time>2021-06-03T08:30:40Z</time>
      </trkpt>
      <trkpt lat="44.69255" lon="3.04218">
        <ele>1055.5</ele>
        <time>2021-06-03T08:31:10Z</time>
      </trkpt>
      <trkpt lat="44.69217" lon="3.04238">
        <ele>1056.9</ele>
        <time>2021-06-03T08:31:41Z</time>
      </trkpt>
      <trkpt lat="44.6918" lon="3.04248">
        <ele>1057.9</ele>
        <time>2021-06-03T08:32:12Z</time>
      </trkpt>
      <trkpt lat="44.69169" lon="3.04252">
        <ele>1060.7</ele>
        <time>2021-06-03T08:32:43Z</time>
      </trkpt>
      <trkpt lat="44.692" lon="3.04246">
        <ele>1060.7</ele>
        <time>2021-06-03T08:33:14Z</time>
      </trkpt>
      <trkpt lat="44.69233" lon="3.04232">
        <ele>1058.3</ele>
        <time>2021-06-03T08:33:44Z</time>
      </trkpt>
      <trkpt lat="44.69223" lon="3.04237">
        <ele>1055.8</ele>
        <time>2021-06-03T08:34:26Z</time>
      </trkpt>
      <trkpt lat="44.69184" lon="3.04248">
        <ele>1059.4</ele>
        <time>2021-06-03T08:34:57Z</time>
      </trkpt>
      <trkpt lat="44.69146" lon="3.04255">
        <ele>1063.8</ele>
        <time>2021-06-03T08:35:27Z</time>
      </trkpt>
      <trkpt lat="44.69109" lon="3.04272">
        <ele>1067</ele>
        <time>2021-06-03T08:35:58Z</time>
      </trkpt>
      <trkpt lat="44.69088" lon="3.04313">
        <ele>1066.6</ele>
        <time>2021-06-03T08:36:28Z</time>
      </trkpt>
      <trkpt lat="44.69094" lon="3.04368">
        <ele>1065.3</ele>
        <time>2021-06-03T08:36:59Z</time>
      </trkpt>
      <trkpt lat="44.691" lon="3.04423">
        <ele>1068</ele>
        <time>2021-06-03T08:37:30Z</time>
      </trkpt>
      <trkpt lat="44.69104" lon="3.04478">
        <ele>1070.6</ele>
        <time>2021-06-03T08:38:00Z</time>
      </trkpt>
      <trkpt lat="44.69111" lon="3.04526">
        <ele>1072.2</ele>
        <time>2021-06-03T08:38:31Z</time>
      </trkpt>
      <trkpt lat="44.69117" lon="3.0458">
        <ele>1071.4</ele>
        <time>2021-06-03T08:39:01Z</time>
      </trkpt>
      <trkpt lat="44.69119" lon="3.04594">
        <ele>1074.9</ele>
        <time>2021-06-03T08:39:58Z</time>
      </trkpt>
      <trkpt lat="44.69121" lon="3.04628">
        <ele>1074.3</ele>
        <time>2021-06-03T08:40:28Z</time>
      </trkpt>
      <trkpt lat="44.69127" lon="3.04662">
        <ele>1078.5</ele>
        <time>2021-06-03T08:40:58Z</time>
      </trkpt>
      <trkpt lat="44.69131" lon="3.04699">
        <ele>1079.4</ele>
        <time>2021-06-03T08:41:29Z</time>
      </trkpt>
      <trkpt lat="44.69135" lon="3.04752">
        <ele>1081.4</ele>
        <time>2021-06-03T08:41:59Z</time>
      </trkpt>
      <trkpt lat="44.69151" lon="3.048">
        <ele>1083.6</ele>
        <time>2021-06-03T08:42:29Z</time>
      </trkpt>
      <trkpt lat="44.69172" lon="3.04845">
        <ele>1086.9</ele>
        <time>2021-06-03T08:43:00Z</time>
      </trkpt>
      <trkpt lat="44.69192" lon="3.04883">
        <ele>1090.8</ele>
        <time>2021-06-03T08:43:31Z</time>
      </trkpt>
      <trkpt lat="44.69203" lon="3.04924">
        <ele>1092.3</ele>
        <time>2021-06-03T08:44:01Z</time>
      </trkpt>
      <trkpt lat="44.69211" lon="3.04977">
        <ele>1092.5</ele>
        <time>2021-06-03T08:44:32Z</time>
      </trkpt>
      <trkpt lat="44.69225" lon="3.05028">
        <ele>1095.8</ele>
        <time>2021-06-03T08:45:02Z</time>
      </trkpt>
      <trkpt lat="44.69231" lon="3.05078">
        <ele>1099.9</ele>
        <time>2021-06-03T08:45:32Z</time>
      </trkpt>
      <trkpt lat="44.69222" lon="3.05135">
        <ele>1099.8</ele>
        <time>2021-06-03T08:46:04Z</time>
      </trkpt>
      <trkpt lat="44.69212" lon="3.05187">
        <ele>1101.4</ele>
        <time>2021-06-03T08:46:34Z</time>
      </trkpt>
      <trkpt lat="44.6922" lon="3.0523">
        <ele>1103.3</ele>
        <time>2021-06-03T08:47:04Z</time>
      </trkpt>
      <trkpt lat="44.6922" lon="3.05265">
        <ele>1109.6</ele>
        <time>2021-06-03T08:47:34Z</time>
      </trkpt>
      <trkpt lat="44.69226" lon="3.053">
        <ele>1113.7</ele>
        <time>2021-06-03T08:48:05Z</time>
      </trkpt>
      <trkpt lat="44.69227" lon="3.05333">
        <ele>1114.7</ele>
        <time>2021-06-03T08:48:35Z</time>
      </trkpt>
      <trkpt lat="44.69223" lon="3.05376">
        <ele>1112.2</ele>
        <time>2021-06-03T08:49:06Z</time>
      </trkpt>
      <trkpt lat="44.69234" lon="3.05419">
        <ele>1108.5</ele>
        <time>2021-06-03T08:49:37Z</time>
      </trkpt>
      <trkpt lat="44.69271" lon="3.05449">
        <ele>1110.6</ele>
        <time>2021-06-03T08:50:07Z</time>
      </trkpt>
      <trkpt lat="44.69307" lon="3.05465">
        <ele>1115</ele>
        <time>2021-06-03T08:50:38Z</time>
      </trkpt>
      <trkpt lat="44.69346" lon="3.05453">
        <ele>1116.1</ele>
        <time>2021-06-03T08:51:09Z</time>
      </trkpt>
      <trkpt lat="44.69386" lon="3.05438">
        <ele>1115</ele>
        <time>2021-06-03T08:51:40Z</time>
      </trkpt>
      <trkpt lat="44.69396" lon="3.05437">
        <ele>1116.3</ele>
        <time>2021-06-03T08:52:30Z</time>
      </trkpt>
      <trkpt lat="44.69437" lon="3.05419">
        <ele>1114.7</ele>
        <time>2021-06-03T08:53:00Z</time>
      </trkpt>
      <trkpt lat="44.69479" lon="3.05427">
        <ele>1108.8</ele>
        <time>2021-06-03T08:53:32Z</time>
      </trkpt>
      <trkpt lat="44.69506" lon="3.05431">
        <ele>1109.3</ele>
        <time>2021-06-03T08:54:02Z</time>
      </trkpt>
      <trkpt lat="44.69547" lon="3.05451">
        <ele>1107.3</ele>
        <time>2021-06-03T08:54:34Z</time>
      </trkpt>
      <trkpt lat="44.6959" lon="3.05459">
        <ele>1105.2</ele>
        <time>2021-06-03T08:55:04Z</time>
      </trkpt>
      <trkpt lat="44.69631" lon="3.05461">
        <ele>1105</ele>
        <time>2021-06-03T08:55:34Z</time>
      </trkpt>
      <trkpt lat="44.69677" lon="3.05465">
        <ele>1101.9</ele>
        <time>2021-06-03T08:56:05Z</time>
      </trkpt>
      <trkpt lat="44.6972" lon="3.05467">
        <ele>1099.5</ele>
        <time>2021-06-03T08:56:36Z</time>
      </trkpt>
      <trkpt lat="44.69767" lon="3.05459">
        <ele>1100.4</ele>
        <time>2021-06-03T08:57:07Z</time>
      </trkpt>
      <trkpt lat="44.69809" lon="3.05453">
        <ele>1097.7</ele>
        <time>2021-06-03T08:57:37Z</time>
      </trkpt>
      <trkpt lat="44.69853" lon="3.05462">
        <ele>1095</ele>
        <time>2021-06-03T08:58:07Z</time>
      </trkpt>
      <trkpt lat="44.69894" lon="3.05477">
        <ele>1093</ele>
        <time>2021-06-03T08:58:37Z</time>
      </trkpt>
      <trkpt lat="44.69939" lon="3.05491">
        <ele>1093.2</ele>
        <time>2021-06-03T08:59:08Z</time>
      </trkpt>
      <trkpt lat="44.69984" lon="3.05491">
        <ele>1092.8</ele>
        <time>2021-06-03T08:59:38Z</time>
      </trkpt>
      <trkpt lat="44.70024" lon="3.05508">
        <ele>1087.8</ele>
        <time>2021-06-03T09:00:08Z</time>
      </trkpt>
      <trkpt lat="44.7007" lon="3.05508">
        <ele>1091.3</ele>
        <time>2021-06-03T09:00:39Z</time>
      </trkpt>
      <trkpt lat="44.70109" lon="3.05483">
        <ele>1093.4</ele>
        <time>2021-06-03T09:01:10Z</time>
      </trkpt>
      <trkpt lat="44.70143" lon="3.0546">
        <ele>1089.9</ele>
        <time>2021-06-03T09:01:40Z</time>
      </trkpt>
      <trkpt lat="44.70151" lon="3.05464">
        <ele>1090.5</ele>
        <time>2021-06-03T09:02:35Z</time>
      </trkpt>
      <trkpt lat="44.70186" lon="3.05485">
        <ele>1091.5</ele>
        <time>2021-06-03T09:03:05Z</time>
      </trkpt>
      <trkpt lat="44.7022" lon="3.05511">
        <ele>1091.6</ele>
        <time>2021-06-03T09:03:36Z</time>
      </trkpt>
      <trkpt lat="44.70259" lon="3.05528">
        <ele>1094.5</ele>
        <time>2021-06-03T09:04:06Z</time>
      </trkpt>
      <trkpt lat="44.70298" lon="3.05533">
        <ele>1094.9</ele>
        <time>2021-06-03T09:04:36Z</time>
      </trkpt>
      <trkpt lat="44.7034" lon="3.05528">
        <ele>1100.9</ele>
        <time>2021-06-03T09:05:07Z</time>
      </trkpt>
      <trkpt lat="44.70377" lon="3.05515">
        <ele>1103.9</ele>
        <time>2021-06-03T09:05:38Z</time>
      </trkpt>
      <trkpt lat="44.70386" lon="3.0551">
        <ele>1100.1</ele>
        <time>2021-06-03T09:06:38Z</time>
      </trkpt>
      <trkpt lat="44.70422" lon="3.05498">
        <ele>1104</ele>
        <time>2021-06-03T09:07:08Z</time>
      </trkpt>
      <trkpt lat="44.70463" lon="3.05484">
        <ele>1108.3</ele>
        <time>2021-06-03T09:07:40Z</time>
      </trkpt>
      <trkpt lat="44.705" lon="3.05514">
        <ele>1105.5</ele>
        <time>2021-06-03T09:08:10Z</time>
      </trkpt>
      <trkpt lat="44.70537" lon="3.05545">
        <ele>1103.9</ele>
        <time>2021-06-03T09:08:41Z</time>
      </trkpt>
      <trkpt lat="44.70574" lon="3.05583">
        <ele>1105.5</ele>
        <time>2021-06-03T09:09:12Z</time>
      </trkpt>
      <trkpt lat="44.70606" lon="3.0561">
        <ele>1108.3</ele>
        <time>2021-06-03T09:09:42Z</time>
      </trkpt>
      <trkpt lat="44.70646" lon="3.0564">
        <ele>1109.8</ele>
        <time>2021-06-03T09:10:12Z</time>
      </trkpt>
      <trkpt lat="44.70686" lon="3.05672">
        <ele>1107.6</ele>
        <time>2021-06-03T09:10:43Z</time>
      </trkpt>
      <trkpt lat="44.70725" lon="3.05703">
        <ele>1107.9</ele>
        <time>2021-06-03T09:11:14Z</time>
      </trkpt>
      <trkpt lat="44.70766" lon="3.05736">
        <ele>1109.4</ele>
        <time>2021-06-03T09:11:46Z</time>
      </trkpt>
      <trkpt lat="44.70799" lon="3.05769">
        <ele>1110.3</ele>
        <time>2021-06-03T09:12:16Z</time>
      </trkpt>
      <trkpt lat="44.70792" lon="3.0581">
        <ele>1110</ele>
        <time>2021-06-03T09:12:46Z</time>
      </trkpt>
      <trkpt lat="44.70793" lon="3.05848">
        <ele>1111.5</ele>
        <time>2021-06-03T09:13:17Z</time>
      </trkpt>
      <trkpt lat="44.7083" lon="3.0588">
        <ele>1112.1</ele>
        <time>2021-06-03T09:13:47Z</time>
      </trkpt>
      <trkpt lat="44.70863" lon="3.05913">
        <ele>1114</ele>
        <time>2021-06-03T09:14:18Z</time>
      </trkpt>
      <trkpt lat="44.70898" lon="3.05949">
        <ele>1117.1</ele>
        <time>2021-06-03T09:14:49Z</time>
      </trkpt>
      <trkpt lat="44.70936" lon="3.05976">
        <ele>1117.6</ele>
        <time>2021-06-03T09:15:19Z</time>
      </trkpt>
      <trkpt lat="44.70977" lon="3.0599">
        <ele>1118.4</ele>
        <time>2021-06-03T09:15:50Z</time>
      </trkpt>
      <trkpt lat="44.71017" lon="3.06005">
        <ele>1119.1</ele>
        <time>2021-06-03T09:16:20Z</time>
      </trkpt>
      <trkpt lat="44.71057" lon="3.06006">
        <ele>1120.8</ele>
        <time>2021-06-03T09:16:52Z</time>
      </trkpt>
      <trkpt lat="44.71101" lon="3.06011">
        <ele>1121.4</ele>
        <time>2021-06-03T09:17:22Z</time>
      </trkpt>
      <trkpt lat="44.71144" lon="3.06025">
        <ele>1120.9</ele>
        <time>2021-06-03T09:17:52Z</time>
      </trkpt>
      <trkpt lat="44.71184" lon="3.06053">
        <ele>1119.4</ele>
        <time>2021-06-03T09:18:23Z</time>
      </trkpt>
      <trkpt lat="44.71222" lon="3.06087">
        <ele>1116.5</ele>
        <time>2021-06-03T09:18:54Z</time>
      </trkpt>
      <trkpt lat="44.71236" lon="3.06103">
        <ele>1118.2</ele>
        <time>2021-06-03T09:19:25Z</time>
      </trkpt>
      <trkpt lat="44.71244" lon="3.0611">
        <ele>1118.8</ele>
        <time>2021-06-03T09:20:40Z</time>
      </trkpt>
      <trkpt lat="44.71277" lon="3.06143">
        <ele>1121.8</ele>
        <time>2021-06-03T09:21:10Z</time>
      </trkpt>
      <trkpt lat="44.71312" lon="3.06175">
        <ele>1124.1</ele>
        <time>2021-06-03T09:21:40Z</time>
      </trkpt>
      <trkpt lat="44.7135" lon="3.06196">
        <ele>1122.2</ele>
        <time>2021-06-03T09:22:12Z</time>
      </trkpt>
      <trkpt lat="44.71359" lon="3.06191">
        <ele>1121.9</ele>
        <time>2021-06-03T09:22:50Z</time>
      </trkpt>
      <trkpt lat="44.71383" lon="3.06174">
        <ele>1122</ele>
        <time>2021-06-03T09:23:20Z</time>
      </trkpt>
      <trkpt lat="44.71383" lon="3.06174">
        <ele>1122.6</ele>
        <time>2021-06-03T09:23:52Z</time>
      </trkpt>
      <trkpt lat="44.71383" lon="3.06174">
        <ele>1121.5</ele>
        <time>2021-06-03T09:24:22Z</time>
      </trkpt>
      <trkpt lat="44.71383" lon="3.06174">
        <ele>1121.9</ele>
        <time>2021-06-03T09:24:52Z</time>
      </trkpt>
      <trkpt lat="44.71383" lon="3.06174">
        <ele>1122.1</ele>
        <time>2021-06-03T09:25:22Z</time>
      </trkpt>
      <trkpt lat="44.71383" lon="3.06174">
        <ele>1122.8</ele>
        <time>2021-06-03T09:25:53Z</time>
      </trkpt>
      <trkpt lat="44.71383" lon="3.06174">
        <ele>1122</ele>
        <time>2021-06-03T09:26:23Z</time>
      </trkpt>
      <trkpt lat="44.71383" lon="3.06174">
        <ele>1122.8</ele>
        <time>2021-06-03T09:26:53Z</time>
      </trkpt>
      <trkpt lat="44.71383" lon="3.06174">
        <ele>1121.2</ele>
        <time>2021-06-03T09:27:24Z</time>
      </trkpt>
      <trkpt lat="44.71383" lon="3.06172">
        <ele>1121.8</ele>
        <time>2021-06-03T09:27:54Z</time>
      </trkpt>
      <trkpt lat="44.71383" lon="3.06172">
        <ele>1121.6</ele>
        <time>2021-06-03T09:28:25Z</time>
      </trkpt>
      <trkpt lat="44.71379" lon="3.06171">
        <ele>1123.9</ele>
        <time>2021-06-03T09:28:55Z</time>
      </trkpt>
      <trkpt lat="44.71382" lon="3.06171">
        <ele>1123.4</ele>
        <time>2021-06-03T09:29:25Z</time>
      </trkpt>
      <trkpt lat="44.71383" lon="3.06172">
        <ele>1124.9</ele>
        <time>2021-06-03T09:29:56Z</time>
      </trkpt>
      <trkpt lat="44.71396" lon="3.06151">
        <ele>1122.1</ele>
        <time>2021-06-03T09:30:26Z</time>
      </trkpt>
      <trkpt lat="44.71422" lon="3.06109">
        <ele>1121.2</ele>
        <time>2021-06-03T09:30:58Z</time>
      </trkpt>
      <trkpt lat="44.71452" lon="3.06067">
        <ele>1122.5</ele>
        <time>2021-06-03T09:31:28Z</time>
      </trkpt>
      <trkpt lat="44.71492" lon="3.06081">
        <ele>1120.8</ele>
        <time>2021-06-03T09:31:58Z</time>
      </trkpt>
      <trkpt lat="44.71529" lon="3.06099">
        <ele>1118.7</ele>
        <time>2021-06-03T09:32:28Z</time>
      </trkpt>
      <trkpt lat="44.71568" lon="3.06126">
        <ele>1119.9</ele>
        <time>2021-06-03T09:32:58Z</time>
      </trkpt>
      <trkpt lat="44.71607" lon="3.06146">
        <ele>1119</ele>
        <time>2021-06-03T09:33:29Z</time>
      </trkpt>
      <trkpt lat="44.71644" lon="3.06166">
        <ele>1117.2</ele>
        <time>2021-06-03T09:34:00Z</time>
      </trkpt>
      <trkpt lat="44.71683" lon="3.06191">
        <ele>1116.1</ele>
        <time>2021-06-03T09:34:31Z</time>
      </trkpt>
      <trkpt lat="44.717" lon="3.06205">
        <ele>1117.8</ele>
        <time>2021-06-03T09:35:02Z</time>
      </trkpt>
      <trkpt lat="44.71709" lon="3.06215">
        <ele>1119.6</ele>
        <time>2021-06-03T09:35:32Z</time>
      </trkpt>
      <trkpt lat="44.71748" lon="3.06239">
        <ele>1118.8</ele>
        <time>2021-06-03T09:36:02Z</time>
      </trkpt>
      <trkpt lat="44.71789" lon="3.06257">
        <ele>1116.3</ele>
        <time>2021-06-03T09:36:34Z</time>
      </trkpt>
      <trkpt lat="44.71832" lon="3.06276">
        <ele>1113.8</ele>
        <time>2021-06-03T09:37:04Z</time>
      </trkpt>
      <trkpt lat="44.71875" lon="3.0629">
        <ele>1115.9</ele>
        <time>2021-06-03T09:37:34Z</time>
      </trkpt>
      <trkpt lat="44.71917" lon="3.06305">
        <ele>1117.8</ele>
        <time>2021-06-03T09:38:05Z</time>
      </trkpt>
      <trkpt lat="44.71955" lon="3.06309">
        <ele>1118.4</ele>
        <time>2021-06-03T09:38:37Z</time>
      </trkpt>
      <trkpt lat="44.71954" lon="3.06308">
        <ele>1117.9</ele>
        <time>2021-06-03T09:39:07Z</time>
      </trkpt>
      <trkpt lat="44.71968" lon="3.06323">
        <ele>1113.9</ele>
        <time>2021-06-03T09:39:38Z</time>
      </trkpt>
      <trkpt lat="44.71976" lon="3.06332">
        <ele>1112.4</ele>
        <time>2021-06-03T09:40:20Z</time>
      </trkpt>
      <trkpt lat="44.71984" lon="3.06368">
        <ele>1108.8</ele>
        <time>2021-06-03T09:40:50Z</time>
      </trkpt>
      <trkpt lat="44.71991" lon="3.06359">
        <ele>1111.2</ele>
        <time>2021-06-03T09:41:25Z</time>
      </trkpt>
      <trkpt lat="44.72018" lon="3.06358">
        <ele>1113.7</ele>
        <time>2021-06-03T09:41:56Z</time>
      </trkpt>
      <trkpt lat="44.72054" lon="3.06354">
        <ele>1112.4</ele>
        <time>2021-06-03T09:42:26Z</time>
      </trkpt>
      <trkpt lat="44.72088" lon="3.06351">
        <ele>1109.7</ele>
        <time>2021-06-03T09:42:56Z</time>
      </trkpt>
      <trkpt lat="44.72126" lon="3.0637">
        <ele>1107.5</ele>
        <time>2021-06-03T09:43:28Z</time>
      </trkpt>
      <trkpt lat="44.72158" lon="3.06394">
        <ele>1106.7</ele>
        <time>2021-06-03T09:43:58Z</time>
      </trkpt>
      <trkpt lat="44.72174" lon="3.06402">
        <ele>1105.2</ele>
        <time>2021-06-03T09:44:28Z</time>
      </trkpt>
      <trkpt lat="44.7218" lon="3.0639">
        <ele>1103.4</ele>
        <time>2021-06-03T09:45:17Z</time>
      </trkpt>
      <trkpt lat="44.72204" lon="3.06348">
        <ele>1104.5</ele>
        <time>2021-06-03T09:45:47Z</time>
      </trkpt>
      <trkpt lat="44.72232" lon="3.06306">
        <ele>1105.7</ele>
        <time>2021-06-03T09:46:18Z</time>
      </trkpt>
      <trkpt lat="44.72261" lon="3.06291">
        <ele>1109.2</ele>
        <time>2021-06-03T09:46:49Z</time>
      </trkpt>
      <trkpt lat="44.72306" lon="3.06293">
        <ele>1105.9</ele>
        <time>2021-06-03T09:47:20Z</time>
      </trkpt>
      <trkpt lat="44.7235" lon="3.06279">
        <ele>1104</ele>
        <time>2021-06-03T09:47:52Z</time>
      </trkpt>
      <trkpt lat="44.72393" lon="3.06267">
        <ele>1100.1</ele>
        <time>2021-06-03T09:48:22Z</time>
      </trkpt>
      <trkpt lat="44.7244" lon="3.06258">
        <ele>1099.3</ele>
        <time>2021-06-03T09:48:53Z</time>
      </trkpt>
      <trkpt lat="44.72478" lon="3.06237">
        <ele>1097.4</ele>
        <time>2021-06-03T09:49:24Z</time>
      </trkpt>
      <trkpt lat="44.72513" lon="3.06267">
        <ele>1094.9</ele>
        <time>2021-06-03T09:49:55Z</time>
      </trkpt>
      <trkpt lat="44.7255" lon="3.06263">
        <ele>1099</ele>
        <time>2021-06-03T09:50:26Z</time>
      </trkpt>
      <trkpt lat="44.72581" lon="3.06234">
        <ele>1099.9</ele>
        <time>2021-06-03T09:50:58Z</time>
      </trkpt>
      <trkpt lat="44.72604" lon="3.06244">
        <ele>1103.7</ele>
        <time>2021-06-03T09:51:28Z</time>
      </trkpt>
      <trkpt lat="44.72633" lon="3.06277">
        <ele>1103.5</ele>
        <time>2021-06-03T09:51:59Z</time>
      </trkpt>
      <trkpt lat="44.72634" lon="3.06275">
        <ele>1102.6</ele>
        <time>2021-06-03T09:53:08Z</time>
      </trkpt>
      <trkpt lat="44.7266" lon="3.06285">
        <ele>1105.1</ele>
        <time>2021-06-03T09:53:38Z</time>
      </trkpt>
      <trkpt lat="44.72703" lon="3.06297">
        <ele>1105.8</ele>
        <time>2021-06-03T09:54:08Z</time>
      </trkpt>
      <trkpt lat="44.72749" lon="3.06318">
        <ele>1108.6</ele>
        <time>2021-06-03T09:54:40Z</time>
      </trkpt>
      <trkpt lat="44.72787" lon="3.06353">
        <ele>1106.8</ele>
        <time>2021-06-03T09:55:10Z</time>
      </trkpt>
      <trkpt lat="44.72814" lon="3.06392">
        <ele>1104.9</ele>
        <time>2021-06-03T09:55:41Z</time>
      </trkpt>
      <trkpt lat="44.72847" lon="3.06435">
        <ele>1107.2</ele>
        <time>2021-06-03T09:56:12Z</time>
      </trkpt>
      <trkpt lat="44.72868" lon="3.06485">
        <ele>1105.1</ele>
        <time>2021-06-03T09:56:43Z</time>
      </trkpt>
      <trkpt lat="44.72895" lon="3.0653">
        <ele>1106.2</ele>
        <time>2021-06-03T09:57:14Z</time>
      </trkpt>
      <trkpt lat="44.72925" lon="3.06565">
        <ele>1110.1</ele>
        <time>2021-06-03T09:57:46Z</time>
      </trkpt>
      <trkpt lat="44.72948" lon="3.06616">
        <ele>1111.1</ele>
        <time>2021-06-03T09:58:16Z</time>
      </trkpt>
      <trkpt lat="44.7298" lon="3.0666">
        <ele>1111.7</ele>
        <time>2021-06-03T09:58:46Z</time>
      </trkpt>
      <trkpt lat="44.72985" lon="3.06665">
        <ele>1111</ele>
        <time>2021-06-03T09:59:17Z</time>
      </trkpt>
      <trkpt lat="44.72985" lon="3.06665">
        <ele>1111.8</ele>
        <time>2021-06-03T09:59:47Z</time>
      </trkpt>
      <trkpt lat="44.73018" lon="3.06688">
        <ele>1113.2</ele>
        <time>2021-06-03T10:00:17Z</time>
      </trkpt>
      <trkpt lat="44.73058" lon="3.0671">
        <ele>1111.4</ele>
        <time>2021-06-03T10:00:48Z</time>
      </trkpt>
      <trkpt lat="44.73099" lon="3.06726">
        <ele>1110.8</ele>
        <time>2021-06-03T10:01:19Z</time>
      </trkpt>
      <trkpt lat="44.7314" lon="3.0675">
        <ele>1110.2</ele>
        <time>2021-06-03T10:01:51Z</time>
      </trkpt>
      <trkpt lat="44.73175" lon="3.06783">
        <ele>1106.4</ele>
        <time>2021-06-03T10:02:21Z</time>
      </trkpt>
      <trkpt lat="44.73212" lon="3.06805">
        <ele>1103.2</ele>
        <time>2021-06-03T10:02:51Z</time>
      </trkpt>
      <trkpt lat="44.73252" lon="3.06837">
        <ele>1102.9</ele>
        <time>2021-06-03T10:03:22Z</time>
      </trkpt>
      <trkpt lat="44.73295" lon="3.06858">
        <ele>1102</ele>
        <time>2021-06-03T10:03:52Z</time>
      </trkpt>
      <trkpt lat="44.73336" lon="3.06885">
        <ele>1102.1</ele>
        <time>2021-06-03T10:04:24Z</time>
      </trkpt>
      <trkpt lat="44.73376" lon="3.06904">
        <ele>1104.9</ele>
        <time>2021-06-03T10:04:55Z</time>
      </trkpt>
      <trkpt lat="44.73415" lon="3.06913">
        <ele>1108.8</ele>
        <time>2021-06-03T10:05:25Z</time>
      </trkpt>
      <trkpt lat="44.73455" lon="3.06913">
        <ele>1110.8</ele>
        <time>2021-06-03T10:05:55Z</time>
      </trkpt>
      <trkpt lat="44.73499" lon="3.06915">
        <ele>1111.3</ele>
        <time>2021-06-03T10:06:26Z</time>
      </trkpt>
      <trkpt lat="44.73499" lon="3.06966">
        <ele>1110.6</ele>
        <time>2021-06-03T10:06:58Z</time>
      </trkpt>
      <trkpt lat="44.73502" lon="3.07029">
        <ele>1109</ele>
        <time>2021-06-03T10:07:28Z</time>
      </trkpt>
      <trkpt lat="44.73537" lon="3.0704">
        <ele>1108.9</ele>
        <time>2021-06-03T10:07:59Z</time>
      </trkpt>
      <trkpt lat="44.73569" lon="3.07037">
        <ele>1109.9</ele>
        <time>2021-06-03T10:08:30Z</time>
      </trkpt>
      <trkpt lat="44.73606" lon="3.07034">
        <ele>1115.9</ele>
        <time>2021-06-03T10:09:01Z</time>
      </trkpt>
      <trkpt lat="44.73643" lon="3.0703">
        <ele>1119.7</ele>
        <time>2021-06-03T10:09:33Z</time>
      </trkpt>
      <trkpt lat="44.7368" lon="3.07029">
        <ele>1123.6</ele>
        <time>2021-06-03T10:10:04Z</time>
      </trkpt>
      <trkpt lat="44.73717" lon="3.07025">
        <ele>1130.8</ele>
        <time>2021-06-03T10:10:35Z</time>
      </trkpt>
      <trkpt lat="44.73738" lon="3.07024">
        <ele>1129.6</ele>
        <time>2021-06-03T10:11:05Z</time>
      </trkpt>
      <trkpt lat="44.73745" lon="3.07024">
        <ele>1130</ele>
        <time>2021-06-03T10:11:35Z</time>
      </trkpt>
      <trkpt lat="44.7379" lon="3.07023">
        <ele>1132.5</ele>
        <time>2021-06-03T10:12:06Z</time>
      </trkpt>
      <trkpt lat="44.73832" lon="3.07018">
        <ele>1128.9</ele>
        <time>2021-06-03T10:12:36Z</time>
      </trkpt>
      <trkpt lat="44.73876" lon="3.07019">
        <ele>1127.3</ele>
        <time>2021-06-03T10:13:06Z</time>
      </trkpt>
      <trkpt lat="44.73921" lon="3.07013">
        <ele>1129.1</ele>
        <time>2021-06-03T10:13:37Z</time>
      </trkpt>
      <trkpt lat="44.73926" lon="3.07013">
        <ele>1129.1</ele>
        <time>2021-06-03T10:14:07Z</time>
      </trkpt>
      <trkpt lat="44.73926" lon="3.07013">
        <ele>1128.8</ele>
        <time>2021-06-03T10:14:38Z</time>
      </trkpt>
      <trkpt lat="44.73939" lon="3.07011">
        <ele>1128.7</ele>
        <time>2021-06-03T10:15:09Z</time>
      </trkpt>
      <trkpt lat="44.73944" lon="3.0701">
        <ele>1127.9</ele>
        <time>2021-06-03T10:15:40Z</time>
      </trkpt>
      <trkpt lat="44.73972" lon="3.07006">
        <ele>1130.6</ele>
        <time>2021-06-03T10:16:11Z</time>
      </trkpt>
      <trkpt lat="44.73973" lon="3.07005">
        <ele>1131.1</ele>
        <time>2021-06-03T10:16:41Z</time>
      </trkpt>
      <trkpt lat="44.73977" lon="3.07006">
        <ele>1131.1</ele>
        <time>2021-06-03T10:17:12Z</time>
      </trkpt>
      <trkpt lat="44.7398" lon="3.07004">
        <ele>1129.3</ele>
        <time>2021-06-03T10:17:43Z</time>
      </trkpt>
      <trkpt lat="44.73988" lon="3.07004">
        <ele>1129.9</ele>
        <time>2021-06-03T10:18:14Z</time>
      </trkpt>
      <trkpt lat="44.74009" lon="3.07006">
        <ele>1130.7</ele>
        <time>2021-06-03T10:18:44Z</time>
      </trkpt>
      <trkpt lat="44.74032" lon="3.07004">
        <ele>1131.6</ele>
        <time>2021-06-03T10:19:14Z</time>
      </trkpt>
      <trkpt lat="44.74079" lon="3.07002">
        <ele>1137.1</ele>
        <time>2021-06-03T10:19:44Z</time>
      </trkpt>
      <trkpt lat="44.74123" lon="3.07002">
        <ele>1136.7</ele>
        <time>2021-06-03T10:20:16Z</time>
      </trkpt>
      <trkpt lat="44.74163" lon="3.06995">
        <ele>1131.6</ele>
        <time>2021-06-03T10:20:46Z</time>
      </trkpt>
      <trkpt lat="44.74173" lon="3.06993">
        <ele>1130.2</ele>
        <time>2021-06-03T10:21:46Z</time>
      </trkpt>
      <trkpt lat="44.74216" lon="3.06979">
        <ele>1128.6</ele>
        <time>2021-06-03T10:22:16Z</time>
      </trkpt>
      <trkpt lat="44.74256" lon="3.0696">
        <ele>1128.6</ele>
        <time>2021-06-03T10:22:46Z</time>
      </trkpt>
      <trkpt lat="44.74296" lon="3.06932">
        <ele>1122.8</ele>
        <time>2021-06-03T10:23:17Z</time>
      </trkpt>
      <trkpt lat="44.7432" lon="3.06913">
        <ele>1121.8</ele>
        <time>2021-06-03T10:23:48Z</time>
      </trkpt>
      <trkpt lat="44.74348" lon="3.0689">
        <ele>1119.7</ele>
        <time>2021-06-03T10:24:18Z</time>
      </trkpt>
      <trkpt lat="44.74389" lon="3.06871">
        <ele>1120.3</ele>
        <time>2021-06-03T10:24:48Z</time>
      </trkpt>
      <trkpt lat="44.74429" lon="3.06854">
        <ele>1121.4</ele>
        <time>2021-06-03T10:25:18Z</time>
      </trkpt>
      <trkpt lat="44.74462" lon="3.06813">
        <ele>1118</ele>
        <time>2021-06-03T10:25:49Z</time>
      </trkpt>
      <trkpt lat="44.74493" lon="3.06776">
        <ele>1117.9</ele>
        <time>2021-06-03T10:26:19Z</time>
      </trkpt>
      <trkpt lat="44.7453" lon="3.06741">
        <ele>1119.3</ele>
        <time>2021-06-03T10:26:50Z</time>
      </trkpt>
      <trkpt lat="44.74563" lon="3.06711">
        <ele>1115.9</ele>
        <time>2021-06-03T10:27:20Z</time>
      </trkpt>
      <trkpt lat="44.7461" lon="3.06701">
        <ele>1117.8</ele>
        <time>2021-06-03T10:27:52Z</time>
      </trkpt>
      <trkpt lat="44.74622" lon="3.06696">
        <ele>1115.7</ele>
        <time>2021-06-03T10:28:22Z</time>
      </trkpt>
      <trkpt lat="44.74631" lon="3.06693">
        <ele>1116.1</ele>
        <time>2021-06-03T10:29:48Z</time>
      </trkpt>
      <trkpt lat="44.74666" lon="3.06694">
        <ele>1116.3</ele>
        <time>2021-06-03T10:30:19Z</time>
      </trkpt>
      <trkpt lat="44.74658" lon="3.06698">
        <ele>1118</ele>
        <time>2021-06-03T10:30:50Z</time>
      </trkpt>
      <trkpt lat="44.74659" lon="3.06698">
        <ele>1117.2</ele>
        <time>2021-06-03T10:33:15Z</time>
      </trkpt>
      <trkpt lat="44.74659" lon="3.067">
        <ele>1122.6</ele>
        <time>2021-06-03T10:33:46Z</time>
      </trkpt>
      <trkpt lat="44.74659" lon="3.067">
        <ele>1122.7</ele>
        <time>2021-06-03T10:34:16Z</time>
      </trkpt>
      <trkpt lat="44.74659" lon="3.067">
        <ele>1122</ele>
        <time>2021-06-03T10:34:46Z</time>
      </trkpt>
      <trkpt lat="44.74659" lon="3.067">
        <ele>1121.6</ele>
        <time>2021-06-03T10:35:16Z</time>
      </trkpt>
      <trkpt lat="44.74659" lon="3.067">
        <ele>1121.2</ele>
        <time>2021-06-03T10:35:47Z</time>
      </trkpt>
      <trkpt lat="44.74658" lon="3.06698">
        <ele>1120.8</ele>
        <time>2021-06-03T10:36:17Z</time>
      </trkpt>
      <trkpt lat="44.74673" lon="3.06678">
        <ele>1118.1</ele>
        <time>2021-06-03T10:36:47Z</time>
      </trkpt>
      <trkpt lat="44.747" lon="3.06641">
        <ele>1111.7</ele>
        <time>2021-06-03T10:37:18Z</time>
      </trkpt>
      <trkpt lat="44.74724" lon="3.06598">
        <ele>1107.3</ele>
        <time>2021-06-03T10:37:49Z</time>
      </trkpt>
      <trkpt lat="44.74761" lon="3.06568">
        <ele>1109.3</ele>
        <time>2021-06-03T10:38:20Z</time>
      </trkpt>
      <trkpt lat="44.74795" lon="3.06595">
        <ele>1105.1</ele>
        <time>2021-06-03T10:38:50Z</time>
      </trkpt>
      <trkpt lat="44.74798" lon="3.06608">
        <ele>1103.2</ele>
        <time>2021-06-03T10:39:21Z</time>
      </trkpt>
      <trkpt lat="44.74829" lon="3.06619">
        <ele>1104.3</ele>
        <time>2021-06-03T10:39:52Z</time>
      </trkpt>
      <trkpt lat="44.7486" lon="3.0664">
        <ele>1106.6</ele>
        <time>2021-06-03T10:40:22Z</time>
      </trkpt>
      <trkpt lat="44.74868" lon="3.06645">
        <ele>1105.4</ele>
        <time>2021-06-03T10:40:52Z</time>
      </trkpt>
      <trkpt lat="44.74895" lon="3.06662">
        <ele>1105</ele>
        <time>2021-06-03T10:41:22Z</time>
      </trkpt>
      <trkpt lat="44.7493" lon="3.0668">
        <ele>1108.7</ele>
        <time>2021-06-03T10:41:52Z</time>
      </trkpt>
      <trkpt lat="44.74939" lon="3.06688">
        <ele>1112.2</ele>
        <time>2021-06-03T10:42:23Z</time>
      </trkpt>
      <trkpt lat="44.7492" lon="3.06697">
        <ele>1112</ele>
        <time>2021-06-03T10:42:54Z</time>
      </trkpt>
      <trkpt lat="44.74926" lon="3.06702">
        <ele>1110.7</ele>
        <time>2021-06-03T10:43:24Z</time>
      </trkpt>
      <trkpt lat="44.74964" lon="3.06695">
        <ele>1107.8</ele>
        <time>2021-06-03T10:43:54Z</time>
      </trkpt>
      <trkpt lat="44.75" lon="3.06727">
        <ele>1104</ele>
        <time>2021-06-03T10:44:25Z</time>
      </trkpt>
      <trkpt lat="44.75028" lon="3.0677">
        <ele>1103.6</ele>
        <time>2021-06-03T10:44:55Z</time>
      </trkpt>
      <trkpt lat="44.75057" lon="3.06804">
        <ele>1101.9</ele>
        <time>2021-06-03T10:45:25Z</time>
      </trkpt>
      <trkpt lat="44.75072" lon="3.06819">
        <ele>1101.6</ele>
        <time>2021-06-03T10:45:56Z</time>
      </trkpt>
      <trkpt lat="44.75072" lon="3.06819">
        <ele>1102.1</ele>
        <time>2021-06-03T10:46:27Z</time>
      </trkpt>
      <trkpt lat="44.75099" lon="3.06827">
        <ele>1103.3</ele>
        <time>2021-06-03T10:46:58Z</time>
      </trkpt>
      <trkpt lat="44.75112" lon="3.0683">
        <ele>1101.7</ele>
        <time>2021-06-03T10:47:28Z</time>
      </trkpt>
      <trkpt lat="44.75078" lon="3.06846">
        <ele>1104.8</ele>
        <time>2021-06-03T10:47:58Z</time>
      </trkpt>
      <trkpt lat="44.75084" lon="3.06864">
        <ele>1106.2</ele>
        <time>2021-06-03T10:48:29Z</time>
      </trkpt>
      <trkpt lat="44.75086" lon="3.06891">
        <ele>1106</ele>
        <time>2021-06-03T10:48:59Z</time>
      </trkpt>
      <trkpt lat="44.75113" lon="3.06933">
        <ele>1106.5</ele>
        <time>2021-06-03T10:49:29Z</time>
      </trkpt>
      <trkpt lat="44.75115" lon="3.06934">
        <ele>1107.9</ele>
        <time>2021-06-03T10:50:00Z</time>
      </trkpt>
      <trkpt lat="44.75132" lon="3.06972">
        <ele>1106.5</ele>
        <time>2021-06-03T10:50:30Z</time>
      </trkpt>
      <trkpt lat="44.75154" lon="3.06995">
        <ele>1100.4</ele>
        <time>2021-06-03T10:51:01Z</time>
      </trkpt>
      <trkpt lat="44.75173" lon="3.07023">
        <ele>1095.2</ele>
        <time>2021-06-03T10:51:31Z</time>
      </trkpt>
      <trkpt lat="44.75214" lon="3.07038">
        <ele>1091.3</ele>
        <time>2021-06-03T10:52:01Z</time>
      </trkpt>
      <trkpt lat="44.75247" lon="3.07041">
        <ele>1091.1</ele>
        <time>2021-06-03T10:52:31Z</time>
      </trkpt>
      <trkpt lat="44.75281" lon="3.0704">
        <ele>1086.3</ele>
        <time>2021-06-03T10:53:02Z</time>
      </trkpt>
      <trkpt lat="44.7528" lon="3.07038">
        <ele>1087</ele>
        <time>2021-06-03T10:53:33Z</time>
      </trkpt>
      <trkpt lat="44.75317" lon="3.07052">
        <ele>1081.6</ele>
        <time>2021-06-03T10:54:04Z</time>
      </trkpt>
      <trkpt lat="44.75358" lon="3.07071">
        <ele>1080.5</ele>
        <time>2021-06-03T10:54:34Z</time>
      </trkpt>
      <trkpt lat="44.75397" lon="3.07075">
        <ele>1078.5</ele>
        <time>2021-06-03T10:55:05Z</time>
      </trkpt>
      <trkpt lat="44.75437" lon="3.07078">
        <ele>1078.3</ele>
        <time>2021-06-03T10:55:37Z</time>
      </trkpt>
      <trkpt lat="44.75449" lon="3.07095">
        <ele>1079.7</ele>
        <time>2021-06-03T10:56:07Z</time>
      </trkpt>
      <trkpt lat="44.75446" lon="3.07083">
        <ele>1078.5</ele>
        <time>2021-06-03T10:56:40Z</time>
      </trkpt>
      <trkpt lat="44.75447" lon="3.07097">
        <ele>1084.9</ele>
        <time>2021-06-03T10:57:11Z</time>
      </trkpt>
      <trkpt lat="44.75455" lon="3.0709">
        <ele>1082.7</ele>
        <time>2021-06-03T10:57:41Z</time>
      </trkpt>
      <trkpt lat="44.75454" lon="3.07088">
        <ele>1082.1</ele>
        <time>2021-06-03T10:58:12Z</time>
      </trkpt>
      <trkpt lat="44.75455" lon="3.07089">
        <ele>1079.4</ele>
        <time>2021-06-03T10:58:43Z</time>
      </trkpt>
      <trkpt lat="44.75467" lon="3.07107">
        <ele>1083</ele>
        <time>2021-06-03T10:59:14Z</time>
      </trkpt>
      <trkpt lat="44.75463" lon="3.0711">
        <ele>1085.9</ele>
        <time>2021-06-03T10:59:44Z</time>
      </trkpt>
      <trkpt lat="44.75462" lon="3.0711">
        <ele>1086.6</ele>
        <time>2021-06-03T11:00:16Z</time>
      </trkpt>
      <trkpt lat="44.75474" lon="3.07116">
        <ele>1087.5</ele>
        <time>2021-06-03T11:00:46Z</time>
      </trkpt>
      <trkpt lat="44.75472" lon="3.0712">
        <ele>1090.7</ele>
        <time>2021-06-03T11:01:17Z</time>
      </trkpt>
      <trkpt lat="44.75469" lon="3.0712">
        <ele>1090.7</ele>
        <time>2021-06-03T11:01:48Z</time>
      </trkpt>
      <trkpt lat="44.75479" lon="3.07124">
        <ele>1090.5</ele>
        <time>2021-06-03T11:02:19Z</time>
      </trkpt>
      <trkpt lat="44.75465" lon="3.07114">
        <ele>1091.9</ele>
        <time>2021-06-03T11:02:49Z</time>
      </trkpt>
      <trkpt lat="44.7546" lon="3.07099">
        <ele>1090.1</ele>
        <time>2021-06-03T11:03:20Z</time>
      </trkpt>
      <trkpt lat="44.75467" lon="3.0711">
        <ele>1088.6</ele>
        <time>2021-06-03T11:03:50Z</time>
      </trkpt>
      <trkpt lat="44.75461" lon="3.07095">
        <ele>1088.1</ele>
        <time>2021-06-03T11:04:21Z</time>
      </trkpt>
      <trkpt lat="44.75467" lon="3.0709">
        <ele>1084.6</ele>
        <time>2021-06-03T11:04:51Z</time>
      </trkpt>
      <trkpt lat="44.75468" lon="3.07102">
        <ele>1078.9</ele>
        <time>2021-06-03T11:05:21Z</time>
      </trkpt>
      <trkpt lat="44.75474" lon="3.07058">
        <ele>1074.7</ele>
        <time>2021-06-03T11:05:52Z</time>
      </trkpt>
      <trkpt lat="44.75495" lon="3.07035">
        <ele>1072.4</ele>
        <time>2021-06-03T11:06:22Z</time>
      </trkpt>
      <trkpt lat="44.75526" lon="3.07001">
        <ele>1067.1</ele>
        <time>2021-06-03T11:06:52Z</time>
      </trkpt>
      <trkpt lat="44.75538" lon="3.06955">
        <ele>1064.1</ele>
        <time>2021-06-03T11:07:23Z</time>
      </trkpt>
      <trkpt lat="44.75549" lon="3.06904">
        <ele>1066.7</ele>
        <time>2021-06-03T11:07:54Z</time>
      </trkpt>
      <trkpt lat="44.75569" lon="3.06851">
        <ele>1069.5</ele>
        <time>2021-06-03T11:08:25Z</time>
      </trkpt>
      <trkpt lat="44.75558" lon="3.06804">
        <ele>1068.5</ele>
        <time>2021-06-03T11:08:55Z</time>
      </trkpt>
      <trkpt lat="44.75541" lon="3.06757">
        <ele>1066.7</ele>
        <time>2021-06-03T11:09:26Z</time>
      </trkpt>
      <trkpt lat="44.75536" lon="3.06709">
        <ele>1063.7</ele>
        <time>2021-06-03T11:09:56Z</time>
      </trkpt>
      <trkpt lat="44.75537" lon="3.0665">
        <ele>1060</ele>
        <time>2021-06-03T11:10:28Z</time>
      </trkpt>
      <trkpt lat="44.7552" lon="3.06613">
        <ele>1056.4</ele>
        <time>2021-06-03T11:10:58Z</time>
      </trkpt>
      <trkpt lat="44.75503" lon="3.06584">
        <ele>1054</ele>
        <time>2021-06-03T11:11:29Z</time>
      </trkpt>
      <trkpt lat="44.75504" lon="3.06582">
        <ele>1053.8</ele>
        <time>2021-06-03T11:12:00Z</time>
      </trkpt>
      <trkpt lat="44.75488" lon="3.06545">
        <ele>1057.3</ele>
        <time>2021-06-03T11:12:32Z</time>
      </trkpt>
      <trkpt lat="44.75466" lon="3.06511">
        <ele>1053.6</ele>
        <time>2021-06-03T11:13:02Z</time>
      </trkpt>
      <trkpt lat="44.7545" lon="3.06478">
        <ele>1047.6</ele>
        <time>2021-06-03T11:13:33Z</time>
      </trkpt>
      <trkpt lat="44.75427" lon="3.06447">
        <ele>1043.5</ele>
        <time>2021-06-03T11:14:04Z</time>
      </trkpt>
      <trkpt lat="44.75414" lon="3.06432">
        <ele>1039.2</ele>
        <time>2021-06-03T11:14:34Z</time>
      </trkpt>
      <trkpt lat="44.75414" lon="3.06432">
        <ele>1036.9</ele>
        <time>2021-06-03T11:15:04Z</time>
      </trkpt>
      <trkpt lat="44.75414" lon="3.06432">
        <ele>1038.9</ele>
        <time>2021-06-03T11:15:35Z</time>
      </trkpt>
      <trkpt lat="44.75414" lon="3.06432">
        <ele>1039.2</ele>
        <time>2021-06-03T11:16:06Z</time>
      </trkpt>
      <trkpt lat="44.75414" lon="3.06432">
        <ele>1039</ele>
        <time>2021-06-03T11:16:36Z</time>
      </trkpt>
      <trkpt lat="44.75414" lon="3.06432">
        <ele>1038.8</ele>
        <time>2021-06-03T11:17:08Z</time>
      </trkpt>
      <trkpt lat="44.75414" lon="3.06432">
        <ele>1038.5</ele>
        <time>2021-06-03T11:17:38Z</time>
      </trkpt>
      <trkpt lat="44.75414" lon="3.06432">
        <ele>1039.4</ele>
        <time>2021-06-03T11:18:08Z</time>
      </trkpt>
      <trkpt lat="44.75414" lon="3.06432">
        <ele>1038.5</ele>
        <time>2021-06-03T11:18:40Z</time>
      </trkpt>
      <trkpt lat="44.754" lon="3.06409">
        <ele>1039.7</ele>
        <time>2021-06-03T11:19:10Z</time>
      </trkpt>
      <trkpt lat="44.7539" lon="3.06384">
        <ele>1032.8</ele>
        <time>2021-06-03T11:19:40Z</time>
      </trkpt>
      <trkpt lat="44.7539" lon="3.06384">
        <ele>1033.3</ele>
        <time>2021-06-03T11:20:11Z</time>
      </trkpt>
      <trkpt lat="44.7539" lon="3.06384">
        <ele>1033.1</ele>
        <time>2021-06-03T11:20:43Z</time>
      </trkpt>
      <trkpt lat="44.7539" lon="3.06384">
        <ele>1033.8</ele>
        <time>2021-06-03T11:21:13Z</time>
      </trkpt>
      <trkpt lat="44.7539" lon="3.06384">
        <ele>1033.4</ele>
        <time>2021-06-03T11:21:43Z</time>
      </trkpt>
      <trkpt lat="44.7539" lon="3.06384">
        <ele>1032.9</ele>
        <time>2021-06-03T11:22:14Z</time>
      </trkpt>
      <trkpt lat="44.7539" lon="3.06384">
        <ele>1033.5</ele>
        <time>2021-06-03T11:22:46Z</time>
      </trkpt>
      <trkpt lat="44.7539" lon="3.06384">
        <ele>1032.3</ele>
        <time>2021-06-03T11:23:16Z</time>
      </trkpt>
      <trkpt lat="44.75391" lon="3.0638">
        <ele>1035.2</ele>
        <time>2021-06-03T11:23:47Z</time>
      </trkpt>
      <trkpt lat="44.75391" lon="3.0638">
        <ele>1034.3</ele>
        <time>2021-06-03T11:24:17Z</time>
      </trkpt>
      <trkpt lat="44.75391" lon="3.0638">
        <ele>1035.2</ele>
        <time>2021-06-03T11:24:48Z</time>
      </trkpt>
      <trkpt lat="44.75391" lon="3.0638">
        <ele>1035.5</ele>
        <time>2021-06-03T11:25:19Z</time>
      </trkpt>
      <trkpt lat="44.75391" lon="3.0638">
        <ele>1034.4</ele>
        <time>2021-06-03T11:25:49Z</time>
      </trkpt>
      <trkpt lat="44.75391" lon="3.0638">
        <ele>1035</ele>
        <time>2021-06-03T11:26:20Z</time>
      </trkpt>
      <trkpt lat="44.75391" lon="3.0638">
        <ele>1035</ele>
        <time>2021-06-03T11:26:50Z</time>
      </trkpt>
      <trkpt lat="44.75391" lon="3.0638">
        <ele>1035.1</ele>
        <time>2021-06-03T11:27:22Z</time>
      </trkpt>
      <trkpt lat="44.75391" lon="3.0638">
        <ele>1035.1</ele>
        <time>2021-06-03T11:27:52Z</time>
      </trkpt>
      <trkpt lat="44.75391" lon="3.0638">
        <ele>1035</ele>
        <time>2021-06-03T11:28:22Z</time>
      </trkpt>
      <trkpt lat="44.75391" lon="3.0638">
        <ele>1034.5</ele>
        <time>2021-06-03T11:28:53Z</time>
      </trkpt>
      <trkpt lat="44.75391" lon="3.0638">
        <ele>1034.9</ele>
        <time>2021-06-03T11:29:23Z</time>
      </trkpt>
      <trkpt lat="44.75391" lon="3.0638">
        <ele>1034.6</ele>
        <time>2021-06-03T11:29:53Z</time>
      </trkpt>
      <trkpt lat="44.75391" lon="3.0638">
        <ele>1035.3</ele>
        <time>2021-06-03T11:30:24Z</time>
      </trkpt>
      <trkpt lat="44.75391" lon="3.0638">
        <ele>1034.8</ele>
        <time>2021-06-03T11:30:54Z</time>
      </trkpt>
      <trkpt lat="44.75391" lon="3.0638">
        <ele>1034.7</ele>
        <time>2021-06-03T11:31:24Z</time>
      </trkpt>
      <trkpt lat="44.75391" lon="3.0638">
        <ele>1034.7</ele>
        <time>2021-06-03T11:31:56Z</time>
      </trkpt>
      <trkpt lat="44.75391" lon="3.0638">
        <ele>1034.7</ele>
        <time>2021-06-03T11:32:26Z</time>
      </trkpt>
      <trkpt lat="44.75391" lon="3.0638">
        <ele>1034.3</ele>
        <time>2021-06-03T11:32:58Z</time>
      </trkpt>
      <trkpt lat="44.75391" lon="3.0638">
        <ele>1034.6</ele>
        <time>2021-06-03T11:33:28Z</time>
      </trkpt>
      <trkpt lat="44.75391" lon="3.0638">
        <ele>1034.2</ele>
        <time>2021-06-03T11:33:58Z</time>
      </trkpt>
      <trkpt lat="44.75391" lon="3.0638">
        <ele>1034.8</ele>
        <time>2021-06-03T11:34:28Z</time>
      </trkpt>
      <trkpt lat="44.75391" lon="3.0638">
        <ele>1034.6</ele>
        <time>2021-06-03T11:34:58Z</time>
      </trkpt>
      <trkpt lat="44.75391" lon="3.0638">
        <ele>1035</ele>
        <time>2021-06-03T11:35:28Z</time>
      </trkpt>
      <trkpt lat="44.75391" lon="3.0638">
        <ele>1034.6</ele>
        <time>2021-06-03T11:35:59Z</time>
      </trkpt>
      <trkpt lat="44.75391" lon="3.0638">
        <ele>1034.7</ele>
        <time>2021-06-03T11:36:29Z</time>
      </trkpt>
      <trkpt lat="44.75391" lon="3.0638">
        <ele>1034.9</ele>
        <time>2021-06-03T11:37:00Z</time>
      </trkpt>
      <trkpt lat="44.75391" lon="3.0638">
        <ele>1034.6</ele>
        <time>2021-06-03T11:37:32Z</time>
      </trkpt>
      <trkpt lat="44.75391" lon="3.0638">
        <ele>1034.3</ele>
        <time>2021-06-03T11:38:02Z</time>
      </trkpt>
      <trkpt lat="44.75391" lon="3.0638">
        <ele>1034.2</ele>
        <time>2021-06-03T11:38:32Z</time>
      </trkpt>
      <trkpt lat="44.75391" lon="3.0638">
        <ele>1035.2</ele>
        <time>2021-06-03T11:39:02Z</time>
      </trkpt>
      <trkpt lat="44.75391" lon="3.0638">
        <ele>1034.7</ele>
        <time>2021-06-03T11:39:32Z</time>
      </trkpt>
      <trkpt lat="44.75391" lon="3.0638">
        <ele>1034.7</ele>
        <time>2021-06-03T11:40:04Z</time>
      </trkpt>
      <trkpt lat="44.75391" lon="3.0638">
        <ele>1034.2</ele>
        <time>2021-06-03T11:40:34Z</time>
      </trkpt>
      <trkpt lat="44.75391" lon="3.0638">
        <ele>1034.2</ele>
        <time>2021-06-03T11:41:05Z</time>
      </trkpt>
      <trkpt lat="44.75391" lon="3.0638">
        <ele>1035.1</ele>
        <time>2021-06-03T11:41:36Z</time>
      </trkpt>
      <trkpt lat="44.75391" lon="3.0638">
        <ele>1034.7</ele>
        <time>2021-06-03T11:42:07Z</time>
      </trkpt>
      <trkpt lat="44.75391" lon="3.0638">
        <ele>1034.5</ele>
        <time>2021-06-03T11:42:37Z</time>
      </trkpt>
      <trkpt lat="44.75391" lon="3.06393">
        <ele>1037.8</ele>
        <time>2021-06-03T11:43:42Z</time>
      </trkpt>
      <trkpt lat="44.75392" lon="3.0638">
        <ele>1033.2</ele>
        <time>2021-06-03T11:56:00Z</time>
      </trkpt>
      <trkpt lat="44.75384" lon="3.06364">
        <ele>1031.1</ele>
        <time>2021-06-03T11:56:31Z</time>
      </trkpt>
      <trkpt lat="44.75374" lon="3.06337">
        <ele>1028.9</ele>
        <time>2021-06-03T11:57:01Z</time>
      </trkpt>
      <trkpt lat="44.75356" lon="3.06303">
        <ele>1026.1</ele>
        <time>2021-06-03T11:57:32Z</time>
      </trkpt>
      <trkpt lat="44.75349" lon="3.06263">
        <ele>1026.4</ele>
        <time>2021-06-03T11:58:02Z</time>
      </trkpt>
      <trkpt lat="44.75359" lon="3.06235">
        <ele>1028.5</ele>
        <time>2021-06-03T11:58:32Z</time>
      </trkpt>
      <trkpt lat="44.75382" lon="3.0621">
        <ele>1027.6</ele>
        <time>2021-06-03T11:59:04Z</time>
      </trkpt>
      <trkpt lat="44.75403" lon="3.06196">
        <ele>1024.4</ele>
        <time>2021-06-03T11:59:34Z</time>
      </trkpt>
      <trkpt lat="44.75422" lon="3.06181">
        <ele>1024.3</ele>
        <time>2021-06-03T12:00:04Z</time>
      </trkpt>
      <trkpt lat="44.75453" lon="3.06151">
        <ele>1025.2</ele>
        <time>2021-06-03T12:00:35Z</time>
      </trkpt>
      <trkpt lat="44.75477" lon="3.06114">
        <ele>1023.8</ele>
        <time>2021-06-03T12:01:06Z</time>
      </trkpt>
      <trkpt lat="44.75496" lon="3.06073">
        <ele>1021.1</ele>
        <time>2021-06-03T12:01:36Z</time>
      </trkpt>
      <trkpt lat="44.75514" lon="3.06023">
        <ele>1019.6</ele>
        <time>2021-06-03T12:02:07Z</time>
      </trkpt>
      <trkpt lat="44.75515" lon="3.05981">
        <ele>1021.7</ele>
        <time>2021-06-03T12:02:38Z</time>
      </trkpt>
      <trkpt lat="44.75502" lon="3.0594">
        <ele>1022.7</ele>
        <time>2021-06-03T12:03:08Z</time>
      </trkpt>
      <trkpt lat="44.7549" lon="3.05899">
        <ele>1026.2</ele>
        <time>2021-06-03T12:03:38Z</time>
      </trkpt>
      <trkpt lat="44.75479" lon="3.05875">
        <ele>1025.7</ele>
        <time>2021-06-03T12:04:08Z</time>
      </trkpt>
      <trkpt lat="44.75488" lon="3.05872">
        <ele>1024.6</ele>
        <time>2021-06-03T12:06:55Z</time>
      </trkpt>
      <trkpt lat="44.75501" lon="3.05881">
        <ele>1023</ele>
        <time>2021-06-03T12:07:26Z</time>
      </trkpt>
      <trkpt lat="44.75493" lon="3.05875">
        <ele>1023.2</ele>
        <time>2021-06-03T12:08:16Z</time>
      </trkpt>
      <trkpt lat="44.75484" lon="3.05869">
        <ele>1020.9</ele>
        <time>2021-06-03T12:09:46Z</time>
      </trkpt>
      <trkpt lat="44.75475" lon="3.05865">
        <ele>1020.3</ele>
        <time>2021-06-03T12:10:34Z</time>
      </trkpt>
      <trkpt lat="44.75461" lon="3.05851">
        <ele>1023.5</ele>
        <time>2021-06-03T12:11:04Z</time>
      </trkpt>
      <trkpt lat="44.75484" lon="3.05868">
        <ele>1024.8</ele>
        <time>2021-06-03T12:11:35Z</time>
      </trkpt>
      <trkpt lat="44.75497" lon="3.05877">
        <ele>1025.2</ele>
        <time>2021-06-03T12:12:06Z</time>
      </trkpt>
      <trkpt lat="44.75488" lon="3.05873">
        <ele>1018.8</ele>
        <time>2021-06-03T12:16:32Z</time>
      </trkpt>
      <trkpt lat="44.75463" lon="3.05855">
        <ele>1021.1</ele>
        <time>2021-06-03T12:17:02Z</time>
      </trkpt>
      <trkpt lat="44.75472" lon="3.0586">
        <ele>1024.3</ele>
        <time>2021-06-03T12:17:49Z</time>
      </trkpt>
      <trkpt lat="44.75479" lon="3.05867">
        <ele>1025.4</ele>
        <time>2021-06-03T12:18:22Z</time>
      </trkpt>
      <trkpt lat="44.75489" lon="3.05871">
        <ele>1026.3</ele>
        <time>2021-06-03T12:19:22Z</time>
      </trkpt>
      <trkpt lat="44.75519" lon="3.0589">
        <ele>1024.3</ele>
        <time>2021-06-03T12:19:52Z</time>
      </trkpt>
      <trkpt lat="44.75544" lon="3.05922">
        <ele>1019.4</ele>
        <time>2021-06-03T12:20:22Z</time>
      </trkpt>
      <trkpt lat="44.75569" lon="3.05953">
        <ele>1015.2</ele>
        <time>2021-06-03T12:20:52Z</time>
      </trkpt>
      <trkpt lat="44.75576" lon="3.05963">
        <ele>1016.6</ele>
        <time>2021-06-03T12:21:26Z</time>
      </trkpt>
      <trkpt lat="44.75594" lon="3.05982">
        <ele>1015.6</ele>
        <time>2021-06-03T12:21:56Z</time>
      </trkpt>
      <trkpt lat="44.75605" lon="3.06006">
        <ele>1014.9</ele>
        <time>2021-06-03T12:22:28Z</time>
      </trkpt>
      <trkpt lat="44.75632" lon="3.06028">
        <ele>1012.7</ele>
        <time>2021-06-03T12:22:58Z</time>
      </trkpt>
      <trkpt lat="44.75668" lon="3.06031">
        <ele>1007.5</ele>
        <time>2021-06-03T12:23:29Z</time>
      </trkpt>
      <trkpt lat="44.75703" lon="3.0603">
        <ele>1004.5</ele>
        <time>2021-06-03T12:23:59Z</time>
      </trkpt>
      <trkpt lat="44.75735" lon="3.06016">
        <ele>1003</ele>
        <time>2021-06-03T12:24:29Z</time>
      </trkpt>
      <trkpt lat="44.75767" lon="3.06007">
        <ele>997.7</ele>
        <time>2021-06-03T12:24:59Z</time>
      </trkpt>
      <trkpt lat="44.75795" lon="3.0602">
        <ele>998.3</ele>
        <time>2021-06-03T12:25:30Z</time>
      </trkpt>
      <trkpt lat="44.75817" lon="3.06055">
        <ele>997.7</ele>
        <time>2021-06-03T12:26:01Z</time>
      </trkpt>
      <trkpt lat="44.7584" lon="3.06082">
        <ele>998</ele>
        <time>2021-06-03T12:26:31Z</time>
      </trkpt>
      <trkpt lat="44.75872" lon="3.06083">
        <ele>1003.5</ele>
        <time>2021-06-03T12:27:01Z</time>
      </trkpt>
      <trkpt lat="44.75887" lon="3.06085">
        <ele>1003.8</ele>
        <time>2021-06-03T12:27:32Z</time>
      </trkpt>
      <trkpt lat="44.75929" lon="3.06088">
        <ele>1007.9</ele>
        <time>2021-06-03T12:28:04Z</time>
      </trkpt>
      <trkpt lat="44.75964" lon="3.06097">
        <ele>1013.6</ele>
        <time>2021-06-03T12:28:34Z</time>
      </trkpt>
      <trkpt lat="44.76" lon="3.06109">
        <ele>1016.6</ele>
        <time>2021-06-03T12:29:04Z</time>
      </trkpt>
      <trkpt lat="44.76022" lon="3.06107">
        <ele>1015.8</ele>
        <time>2021-06-03T12:29:34Z</time>
      </trkpt>
      <trkpt lat="44.76037" lon="3.06094">
        <ele>1014</ele>
        <time>2021-06-03T12:30:05Z</time>
      </trkpt>
      <trkpt lat="44.7604" lon="3.06074">
        <ele>1015.5</ele>
        <time>2021-06-03T12:30:36Z</time>
      </trkpt>
      <trkpt lat="44.76045" lon="3.06063">
        <ele>1016.4</ele>
        <time>2021-06-03T12:31:11Z</time>
      </trkpt>
      <trkpt lat="44.76047" lon="3.0605">
        <ele>1017.5</ele>
        <time>2021-06-03T12:33:00Z</time>
      </trkpt>
      <trkpt lat="44.76036" lon="3.06016">
        <ele>1013.3</ele>
        <time>2021-06-03T12:33:30Z</time>
      </trkpt>
      <trkpt lat="44.76044" lon="3.05971">
        <ele>1009.1</ele>
        <time>2021-06-03T12:34:00Z</time>
      </trkpt>
      <trkpt lat="44.76055" lon="3.05938">
        <ele>1008.4</ele>
        <time>2021-06-03T12:34:30Z</time>
      </trkpt>
      <trkpt lat="44.76082" lon="3.05901">
        <ele>1008.3</ele>
        <time>2021-06-03T12:35:01Z</time>
      </trkpt>
      <trkpt lat="44.76101" lon="3.0587">
        <ele>1008.5</ele>
        <time>2021-06-03T12:35:31Z</time>
      </trkpt>
      <trkpt lat="44.76124" lon="3.05839">
        <ele>1011</ele>
        <time>2021-06-03T12:36:02Z</time>
      </trkpt>
      <trkpt lat="44.76149" lon="3.05831">
        <ele>1008.9</ele>
        <time>2021-06-03T12:36:32Z</time>
      </trkpt>
      <trkpt lat="44.76178" lon="3.05839">
        <ele>1007.8</ele>
        <time>2021-06-03T12:37:04Z</time>
      </trkpt>
      <trkpt lat="44.76205" lon="3.05846">
        <ele>1005.5</ele>
        <time>2021-06-03T12:37:34Z</time>
      </trkpt>
      <trkpt lat="44.7622" lon="3.05845">
        <ele>1002.8</ele>
        <time>2021-06-03T12:38:04Z</time>
      </trkpt>
      <trkpt lat="44.76257" lon="3.05849">
        <ele>1002.4</ele>
        <time>2021-06-03T12:38:34Z</time>
      </trkpt>
      <trkpt lat="44.76267" lon="3.0585">
        <ele>1005.3</ele>
        <time>2021-06-03T12:39:06Z</time>
      </trkpt>
      <trkpt lat="44.76303" lon="3.05854">
        <ele>1003.2</ele>
        <time>2021-06-03T12:39:36Z</time>
      </trkpt>
      <trkpt lat="44.76333" lon="3.05836">
        <ele>998.8</ele>
        <time>2021-06-03T12:40:07Z</time>
      </trkpt>
      <trkpt lat="44.76356" lon="3.0582">
        <ele>992.6</ele>
        <time>2021-06-03T12:40:37Z</time>
      </trkpt>
      <trkpt lat="44.76384" lon="3.05818">
        <ele>990.1</ele>
        <time>2021-06-03T12:41:08Z</time>
      </trkpt>
      <trkpt lat="44.76403" lon="3.05801">
        <ele>987.7</ele>
        <time>2021-06-03T12:41:40Z</time>
      </trkpt>
      <trkpt lat="44.76402" lon="3.0576">
        <ele>985.3</ele>
        <time>2021-06-03T12:42:11Z</time>
      </trkpt>
      <trkpt lat="44.76388" lon="3.05718">
        <ele>979.2</ele>
        <time>2021-06-03T12:42:41Z</time>
      </trkpt>
      <trkpt lat="44.76391" lon="3.05704">
        <ele>980.1</ele>
        <time>2021-06-03T12:43:11Z</time>
      </trkpt>
      <trkpt lat="44.76395" lon="3.05669">
        <ele>980</ele>
        <time>2021-06-03T12:43:42Z</time>
      </trkpt>
      <trkpt lat="44.76397" lon="3.05625">
        <ele>979</ele>
        <time>2021-06-03T12:44:12Z</time>
      </trkpt>
      <trkpt lat="44.76408" lon="3.05589">
        <ele>977.6</ele>
        <time>2021-06-03T12:44:43Z</time>
      </trkpt>
      <trkpt lat="44.76431" lon="3.05558">
        <ele>978.7</ele>
        <time>2021-06-03T12:45:14Z</time>
      </trkpt>
      <trkpt lat="44.76455" lon="3.05535">
        <ele>977.4</ele>
        <time>2021-06-03T12:45:44Z</time>
      </trkpt>
      <trkpt lat="44.76484" lon="3.05522">
        <ele>972.9</ele>
        <time>2021-06-03T12:46:16Z</time>
      </trkpt>
      <trkpt lat="44.76493" lon="3.05528">
        <ele>974</ele>
        <time>2021-06-03T12:47:42Z</time>
      </trkpt>
      <trkpt lat="44.76518" lon="3.05521">
        <ele>973.3</ele>
        <time>2021-06-03T12:48:12Z</time>
      </trkpt>
      <trkpt lat="44.76542" lon="3.0551">
        <ele>975</ele>
        <time>2021-06-03T12:48:44Z</time>
      </trkpt>
      <trkpt lat="44.76568" lon="3.05495">
        <ele>977.8</ele>
        <time>2021-06-03T12:49:14Z</time>
      </trkpt>
      <trkpt lat="44.76585" lon="3.05489">
        <ele>979.6</ele>
        <time>2021-06-03T12:49:46Z</time>
      </trkpt>
      <trkpt lat="44.76612" lon="3.05485">
        <ele>983.9</ele>
        <time>2021-06-03T12:50:16Z</time>
      </trkpt>
      <trkpt lat="44.76629" lon="3.05454">
        <ele>983.3</ele>
        <time>2021-06-03T12:50:46Z</time>
      </trkpt>
      <trkpt lat="44.76646" lon="3.05424">
        <ele>982.6</ele>
        <time>2021-06-03T12:51:16Z</time>
      </trkpt>
      <trkpt lat="44.76643" lon="3.0541">
        <ele>980.1</ele>
        <time>2021-06-03T12:51:52Z</time>
      </trkpt>
      <trkpt lat="44.76632" lon="3.05362">
        <ele>983.6</ele>
        <time>2021-06-03T12:52:22Z</time>
      </trkpt>
      <trkpt lat="44.76619" lon="3.05316">
        <ele>978.6</ele>
        <time>2021-06-03T12:52:52Z</time>
      </trkpt>
      <trkpt lat="44.76618" lon="3.05285">
        <ele>978.7</ele>
        <time>2021-06-03T12:53:22Z</time>
      </trkpt>
      <trkpt lat="44.76624" lon="3.05255">
        <ele>979.5</ele>
        <time>2021-06-03T12:53:53Z</time>
      </trkpt>
      <trkpt lat="44.76608" lon="3.05216">
        <ele>975.6</ele>
        <time>2021-06-03T12:54:23Z</time>
      </trkpt>
      <trkpt lat="44.76582" lon="3.0518">
        <ele>970.5</ele>
        <time>2021-06-03T12:54:53Z</time>
      </trkpt>
      <trkpt lat="44.76566" lon="3.05151">
        <ele>972.2</ele>
        <time>2021-06-03T12:55:23Z</time>
      </trkpt>
      <trkpt lat="44.76573" lon="3.05143">
        <ele>973</ele>
        <time>2021-06-03T12:56:16Z</time>
      </trkpt>
      <trkpt lat="44.76591" lon="3.05131">
        <ele>976.1</ele>
        <time>2021-06-03T12:56:47Z</time>
      </trkpt>
      <trkpt lat="44.76624" lon="3.05109">
        <ele>978.8</ele>
        <time>2021-06-03T12:57:17Z</time>
      </trkpt>
      <trkpt lat="44.76655" lon="3.05085">
        <ele>977.4</ele>
        <time>2021-06-03T12:57:48Z</time>
      </trkpt>
      <trkpt lat="44.76681" lon="3.05051">
        <ele>974.9</ele>
        <time>2021-06-03T12:58:18Z</time>
      </trkpt>
      <trkpt lat="44.76714" lon="3.05027">
        <ele>972.5</ele>
        <time>2021-06-03T12:58:49Z</time>
      </trkpt>
      <trkpt lat="44.76749" lon="3.05012">
        <ele>972.6</ele>
        <time>2021-06-03T12:59:20Z</time>
      </trkpt>
      <trkpt lat="44.76782" lon="3.04985">
        <ele>973.6</ele>
        <time>2021-06-03T12:59:51Z</time>
      </trkpt>
      <trkpt lat="44.76804" lon="3.04946">
        <ele>968</ele>
        <time>2021-06-03T13:00:22Z</time>
      </trkpt>
      <trkpt lat="44.76828" lon="3.04908">
        <ele>965.5</ele>
        <time>2021-06-03T13:00:52Z</time>
      </trkpt>
      <trkpt lat="44.76851" lon="3.0487">
        <ele>964.8</ele>
        <time>2021-06-03T13:01:22Z</time>
      </trkpt>
      <trkpt lat="44.7685" lon="3.04858">
        <ele>962.4</ele>
        <time>2021-06-03T13:02:16Z</time>
      </trkpt>
      <trkpt lat="44.76855" lon="3.04835">
        <ele>964.1</ele>
        <time>2021-06-03T13:02:46Z</time>
      </trkpt>
      <trkpt lat="44.76874" lon="3.04791">
        <ele>967.2</ele>
        <time>2021-06-03T13:03:17Z</time>
      </trkpt>
      <trkpt lat="44.76898" lon="3.0475">
        <ele>964.8</ele>
        <time>2021-06-03T13:03:48Z</time>
      </trkpt>
      <trkpt lat="44.7692" lon="3.04714">
        <ele>959.1</ele>
        <time>2021-06-03T13:04:19Z</time>
      </trkpt>
      <trkpt lat="44.7694" lon="3.04671">
        <ele>953.4</ele>
        <time>2021-06-03T13:04:49Z</time>
      </trkpt>
      <trkpt lat="44.76945" lon="3.04645">
        <ele>955.6</ele>
        <time>2021-06-03T13:05:19Z</time>
      </trkpt>
      <trkpt lat="44.7696" lon="3.04656">
        <ele>955.3</ele>
        <time>2021-06-03T13:05:50Z</time>
      </trkpt>
      <trkpt lat="44.76983" lon="3.04655">
        <ele>954.7</ele>
        <time>2021-06-03T13:06:20Z</time>
      </trkpt>
      <trkpt lat="44.77016" lon="3.04644">
        <ele>954.4</ele>
        <time>2021-06-03T13:06:50Z</time>
      </trkpt>
      <trkpt lat="44.77054" lon="3.04621">
        <ele>954</ele>
        <time>2021-06-03T13:07:22Z</time>
      </trkpt>
      <trkpt lat="44.77089" lon="3.04604">
        <ele>953.1</ele>
        <time>2021-06-03T13:07:52Z</time>
      </trkpt>
      <trkpt lat="44.77118" lon="3.04595">
        <ele>951.9</ele>
        <time>2021-06-03T13:08:23Z</time>
      </trkpt>
      <trkpt lat="44.77153" lon="3.04583">
        <ele>953.5</ele>
        <time>2021-06-03T13:08:53Z</time>
      </trkpt>
      <trkpt lat="44.77175" lon="3.04577">
        <ele>951.4</ele>
        <time>2021-06-03T13:09:24Z</time>
      </trkpt>
      <trkpt lat="44.77211" lon="3.04562">
        <ele>954.3</ele>
        <time>2021-06-03T13:09:55Z</time>
      </trkpt>
      <trkpt lat="44.77248" lon="3.04543">
        <ele>959.4</ele>
        <time>2021-06-03T13:10:25Z</time>
      </trkpt>
      <trkpt lat="44.77279" lon="3.04515">
        <ele>963</ele>
        <time>2021-06-03T13:10:56Z</time>
      </trkpt>
      <trkpt lat="44.77277" lon="3.04489">
        <ele>959</ele>
        <time>2021-06-03T13:11:28Z</time>
      </trkpt>
    </trkseg>
  </trk>
</gpx>